Orbital elements of FENGYUN 1C DEB
| Launched | 9 May 1999 |
| Flight ended | – |
| Launch site | Taiyuan Space Center, PRC |
| Owner | People's Republic of China |
| NORAD ID | 31673 |
| Date fetched |
Epoch osculation |
Inc. [°] |
Ecc. | RA asc node [hr] |
Arg Peri. [°] |
Mean anom [°] |
Mean motion [rev/day] |
Abs. mag |
| Date fetched |
Epoch osculation |
Inc. [°] |
Ecc. | RA asc node [hr] |
Arg Peri. [°] |
Mean anom [°] |
Mean motion [rev/day] |
Abs. mag |
| 2026 May 01 17:56 | 2026 Apr 30 08:56:23 | 99.3674 | 0.01250 | 22.0630 | 9.9676 | 350.3942 | 14.32164 | – |
| 2026 Apr 30 17:56 | 2026 Apr 30 08:56:23 | 99.3674 | 0.01250 | 22.0630 | 9.9676 | 350.3942 | 14.32164 | – |
| 2026 Apr 29 17:57 | 2026 Apr 22 19:51:19 | 99.3682 | 0.01253 | 21.5200 | 31.6598 | 350.3942 | 14.32164 | – |
| 2026 Apr 28 17:56 | 2026 Apr 22 19:51:19 | 99.3682 | 0.01253 | 21.5200 | 31.6598 | 350.3942 | 14.32164 | – |
| 2026 Apr 27 17:58 | 2026 Apr 22 19:51:19 | 99.3682 | 0.01253 | 21.5200 | 31.6598 | 350.3942 | 14.32164 | – |
| 2026 Apr 26 17:58 | 2026 Apr 22 19:51:19 | 99.3682 | 0.01253 | 21.5200 | 31.6598 | 350.3942 | 14.32164 | – |
| 2026 Apr 25 17:58 | 2026 Apr 22 19:51:19 | 99.3682 | 0.01253 | 21.5200 | 31.6598 | 350.3942 | 14.32164 | – |
| 2026 Apr 24 17:59 | 2026 Apr 22 19:51:19 | 99.3682 | 0.01253 | 21.5200 | 31.6598 | 350.3942 | 14.32164 | – |
| 2026 Apr 23 17:57 | 2026 Apr 18 20:16:57 | 99.3687 | 0.01255 | 21.2334 | 43.0433 | 350.3942 | 14.32164 | – |
| 2026 Apr 22 17:57 | 2026 Apr 18 20:16:57 | 99.3687 | 0.01255 | 21.2334 | 43.0433 | 350.3942 | 14.32164 | – |
| 2026 Apr 21 17:57 | 2026 Apr 18 20:16:57 | 99.3687 | 0.01255 | 21.2334 | 43.0433 | 350.3942 | 14.32164 | – |
| 2026 Apr 20 17:57 | 2026 Apr 18 20:16:57 | 99.3687 | 0.01255 | 21.2334 | 43.0433 | 350.3942 | 14.32164 | – |
| 2026 Apr 19 17:58 | 2026 Apr 18 20:16:57 | 99.3687 | 0.01255 | 21.2334 | 43.0433 | 350.3942 | 14.32164 | – |
| 2026 Apr 18 17:56 | 2026 Apr 10 12:45:08 | 99.3697 | 0.01257 | 20.6350 | 66.8327 | 350.3942 | 14.32164 | – |
| 2026 Apr 16 17:57 | 2026 Apr 10 12:45:08 | 99.3697 | 0.01257 | 20.6350 | 66.8327 | 350.3942 | 14.32164 | – |
| 2026 Apr 14 17:57 | 2026 Apr 10 12:45:08 | 99.3697 | 0.01257 | 20.6350 | 66.8327 | 350.3942 | 14.32164 | – |
| 2026 Apr 13 17:57 | 2026 Apr 10 12:45:08 | 99.3697 | 0.01257 | 20.6350 | 66.8327 | 350.3942 | 14.32164 | – |
| 2026 Apr 12 17:57 | 2026 Apr 04 07:31:20 | 99.3705 | 0.01258 | 20.1874 | 84.5948 | 350.3942 | 14.32164 | – |
| 2026 Apr 11 17:57 | 2026 Apr 04 07:31:20 | 99.3705 | 0.01258 | 20.1874 | 84.5948 | 350.3942 | 14.32164 | – |
| 2026 Apr 10 17:58 | 2026 Apr 04 07:31:20 | 99.3705 | 0.01258 | 20.1874 | 84.5948 | 350.3942 | 14.32164 | – |
| 2026 Apr 09 18:01 | 2026 Apr 04 07:31:20 | 99.3705 | 0.01258 | 20.1874 | 84.5948 | 350.3942 | 14.32164 | – |
| 2026 Apr 08 17:57 | 2026 Apr 04 07:31:20 | 99.3705 | 0.01258 | 20.1874 | 84.5948 | 350.3942 | 14.32164 | – |
| 2026 Apr 07 17:57 | 2026 Apr 01 00:42:54 | 99.3709 | 0.01259 | 19.9510 | 93.9441 | 350.3942 | 14.32164 | – |
| 2026 Apr 06 17:57 | 2026 Apr 01 00:42:54 | 99.3709 | 0.01259 | 19.9510 | 93.9441 | 350.3942 | 14.32164 | – |
| 2026 Apr 05 17:56 | 2026 Apr 01 00:42:54 | 99.3709 | 0.01259 | 19.9510 | 93.9441 | 350.3942 | 14.32164 | – |
| 2026 Apr 04 17:57 | 2026 Apr 01 00:42:54 | 99.3709 | 0.01259 | 19.9510 | 93.9441 | 350.3942 | 14.32164 | – |